This is the latest recevied weather packets stored in our database for station/object HS5XHC-1. If no packets are shown the sender has not sent any weather packets the latest 10 day(s).
| Time | Temp. | Humidity | Pressure | Rain* | Wind** | Luminosity | Snow |
|---|---|---|---|---|---|---|---|
| 1777908498 | 31.67° C | 41% | 967 hPa | - | - | 0 W/m² | - |
| 1777907875 | 32.22° C | 39% | 967 hPa | - | - | 0 W/m² | - |
| 1777907250 | 32.22° C | 41% | 967 hPa | - | - | 0 W/m² | - |
| 1777906626 | 31.67° C | 44% | 967 hPa | - | - | 0 W/m² | - |
| 1777906002 | 31.11° C | 45% | 967 hPa | - | - | 0 W/m² | - |
| 1777905378 | 32.78° C | 42% | 967 hPa | - | - | 0 W/m² | - |
| 1777904754 | 34.44° C | 35% | 966 hPa | - | - | 0 W/m² | - |
| 1777904130 | 34.44° C | 35% | 966 hPa | - | - | 0 W/m² | - |
| 1777903506 | 34.44° C | 34% | 966 hPa | - | - | 0 W/m² | - |
| 1777902882 | 34.44° C | 35% | 966 hPa | - | - | 0 W/m² | - |
| 1777902258 | 35° C | 32% | 966 hPa | - | - | 0 W/m² | - |
| 1777901634 | 35° C | 32% | 965 hPa | - | - | 0 W/m² | - |
| 1777901010 | 35° C | 31% | 965 hPa | - | - | 0 W/m² | - |
| 1777900386 | 35° C | 31% | 965 hPa | - | - | 0 W/m² | - |
| 1777899762 | 35° C | 31% | 965 hPa | - | - | 0 W/m² | - |
| 1777899138 | 35.56° C | 31% | 965 hPa | - | - | 0 W/m² | - |
| 1777898514 | 35.56° C | 30% | 965 hPa | - | - | 0 W/m² | - |
| 1777897890 | 35.56° C | 31% | 965 hPa | - | - | 0 W/m² | - |
| 1777897266 | 35.56° C | 31% | 965 hPa | - | - | 0 W/m² | - |
| 1777896642 | 36.11° C | 30% | 965 hPa | - | - | 0 W/m² | - |
| 1777896018 | 36.11° C | 30% | 964 hPa | - | - | 0 W/m² | - |
| 1777895394 | 36.11° C | 30% | 964 hPa | - | - | 0 W/m² | - |
| 1777894770 | 36.11° C | 29% | 964 hPa | - | - | 0 W/m² | - |
| 1777894146 | 36.11° C | 29% | 964 hPa | - | - | 0 W/m² | - |
| 1777893522 | 36.11° C | 28% | 964 hPa | - | - | 0 W/m² | - |
* Rain since midnight (hover to see other rain measurements)
** Current wind speed in m/s (hover to see current wind gust speed)